This is the latest recevied weather packets stored in our database for station/object DL3APY-12. If no packets are shown the sender has not sent any weather packets the latest 10 day(s).
| Time | Temp. | Humidity | Pressure | Rain* | Wind** | Luminosity | Snow |
|---|---|---|---|---|---|---|---|
| 1778297476 | 18.89° C | 62% | 1022.5 hPa | - | - | - | - |
| 1778297355 | 18.89° C | 63% | 1030.5 hPa | - | - | - | - |
| 1778297091 | 18.33° C | 64% | 1019.5 hPa | - | - | - | - |
| 1778296785 | 17.78° C | 66% | 1025.5 hPa | - | - | - | - |
| 1778294273 | 16.67° C | 68% | 1025.5 hPa | - | - | - | - |
| 1778294152 | 16.67° C | 68% | 1025.6 hPa | - | - | - | - |
| 1778294106 | 16.67° C | 69% | 1025.6 hPa | - | - | - | - |
| 1778294026 | 16.67° C | 69% | 1025.6 hPa | - | - | - | - |
| 1778293854 | 16.67° C | 71% | 1025.6 hPa | - | - | - | - |
| 1778293576 | 15.56° C | 75% | 1025.6 hPa | - | - | - | - |
| 1778293373 | 15.56° C | 76% | 1025.6 hPa | - | - | - | - |
| 1778293180 | 15° C | 77% | 1020.7 hPa | - | - | - | - |
| 1778292939 | 15° C | 78% | 1023.7 hPa | - | - | - | - |
| 1778292797 | 15° C | 78% | 1023.7 hPa | - | - | - | - |
| 1778292684 | 15° C | 78% | 1023.7 hPa | - | - | - | - |
| 1778292563 | 15° C | 78% | 1023.7 hPa | - | - | - | - |
| 1778292150 | 15.56° C | 75% | 1022.6 hPa | - | - | - | - |
| 1778292124 | 15.56° C | 74% | 1021.7 hPa | - | - | - | - |
| 1778292023 | 15.56° C | 74% | 1021.6 hPa | - | - | - | - |
| 1778291969 | 15.56° C | 74% | 1021.6 hPa | - | - | - | - |
| 1778291851 | 15.56° C | 73% | 1021.6 hPa | - | - | - | - |
| 1778291729 | 15.56° C | 72% | 1021.6 hPa | - | - | - | - |
| 1778291608 | 16.11° C | 72% | 1021.7 hPa | - | - | - | - |
| 1778291464 | 16.11° C | 71% | 1021.7 hPa | - | - | - | - |
| 1778291167 | 16.67° C | 69% | 1021.7 hPa | - | - | - | - |
* Rain since midnight (hover to see other rain measurements)
** Current wind speed in m/s (hover to see current wind gust speed)